Fruitland, New Mexico
Current Conditions -  °F | °C
As of 10:53 PM on Friday 28 Nov 2014 (Local Time) from KFMN Reporting Station
Clear Clear  
Wind Chill: 25°   Ceiling: Unl
Heat Index: 32°   Visibility: 10mi
Dew Point: 15°   Wind: 8mph
Humidity: 50%   Direction: 70°ENE
Pressure: 30.05"   Gusts: NA
Location:  36.74°N, 108.39°W
Report Text: KFMN 290553Z AUTO 07007KT 10SM CLR 00/M09 A3005 RMK AO2 SLP176 T00001094 10139 21011 55001
Loading
Personal Weather Stations






























Interactive Weather Map New forecast layout! Learn more

10-Day Weather Forecast

Advertisements
Track Severe Weather on mobile